sensor_id;sensor_type;location;lat;lon;timestamp;temperature;humidity
12815;DHT22;6472;52.328;13.070;2024-01-25T00:00:22;8.10;99.90
12815;DHT22;6472;52.328;13.070;2024-01-25T00:02:53;8.10;99.90
12815;DHT22;6472;52.328;13.070;2024-01-25T00:05:21;8.10;99.90
12815;DHT22;6472;52.328;13.070;2024-01-25T00:07:52;8.10;99.90
12815;DHT22;6472;52.328;13.070;2024-01-25T00:10:23;8.10;99.90
12815;DHT22;6472;52.328;13.070;2024-01-25T00:12:52;8.30;99.90
12815;DHT22;6472;52.328;13.070;2024-01-25T00:15:22;8.20;99.90
12815;DHT22;6472;52.328;13.070;2024-01-25T00:17:50;8.10;99.90
12815;DHT22;6472;52.328;13.070;2024-01-25T00:20:20;8.10;99.90
12815;DHT22;6472;52.328;13.070;2024-01-25T00:22:48;8.10;99.90
12815;DHT22;6472;52.328;13.070;2024-01-25T00:25:16;8.10;99.90
12815;DHT22;6472;52.328;13.070;2024-01-25T00:27:44;8.10;99.90
12815;DHT22;6472;52.328;13.070;2024-01-25T00:30:16;8.10;99.90
12815;DHT22;6472;52.328;13.070;2024-01-25T00:32:45;8.40;99.90
12815;DHT22;6472;52.328;13.070;2024-01-25T00:35:14;8.10;99.90
12815;DHT22;6472;52.328;13.070;2024-01-25T00:37:43;8.10;99.90
12815;DHT22;6472;52.328;13.070;2024-01-25T00:40:12;8.10;99.90
12815;DHT22;6472;52.328;13.070;2024-01-25T00:42:42;8.10;99.90
12815;DHT22;6472;52.328;13.070;2024-01-25T00:45:12;8.10;99.90
12815;DHT22;6472;52.328;13.070;2024-01-25T00:47:40;8.10;99.90
12815;DHT22;6472;52.328;13.070;2024-01-25T00:50:11;8.10;99.90
12815;DHT22;6472;52.328;13.070;2024-01-25T00:52:40;8.10;99.90
12815;DHT22;6472;52.328;13.070;2024-01-25T00:55:09;8.00;99.90
12815;DHT22;6472;52.328;13.070;2024-01-25T00:57:38;8.00;99.90
12815;DHT22;6472;52.328;13.070;2024-01-25T01:00:07;8.00;99.90
12815;DHT22;6472;52.328;13.070;2024-01-25T01:02:38;8.00;99.90
12815;DHT22;6472;52.328;13.070;2024-01-25T01:05:08;8.00;99.90
12815;DHT22;6472;52.328;13.070;2024-01-25T01:07:39;8.00;99.90
12815;DHT22;6472;52.328;13.070;2024-01-25T01:10:08;8.00;99.90
12815;DHT22;6472;52.328;13.070;2024-01-25T01:12:37;8.00;99.90
12815;DHT22;6472;52.328;13.070;2024-01-25T01:15:06;8.00;99.90
12815;DHT22;6472;52.328;13.070;2024-01-25T01:17:34;8.00;99.90
12815;DHT22;6472;52.328;13.070;2024-01-25T01:20:02;7.90;99.90
12815;DHT22;6472;52.328;13.070;2024-01-25T01:22:30;8.00;99.90
12815;DHT22;6472;52.328;13.070;2024-01-25T01:25:00;8.00;99.90
12815;DHT22;6472;52.328;13.070;2024-01-25T01:27:28;8.00;99.90
12815;DHT22;6472;52.328;13.070;2024-01-25T01:29:56;8.00;99.90
12815;DHT22;6472;52.328;13.070;2024-01-25T01:32:24;8.00;99.90
12815;DHT22;6472;52.328;13.070;2024-01-25T01:34:52;8.00;99.90
12815;DHT22;6472;52.328;13.070;2024-01-25T01:37:20;8.10;99.90
12815;DHT22;6472;52.328;13.070;2024-01-25T01:39:48;8.00;99.90
12815;DHT22;6472;52.328;13.070;2024-01-25T01:42:18;8.00;99.90
12815;DHT22;6472;52.328;13.070;2024-01-25T01:44:46;8.00;99.90
12815;DHT22;6472;52.328;13.070;2024-01-25T01:47:15;7.90;99.90
12815;DHT22;6472;52.328;13.070;2024-01-25T01:49:43;7.90;99.90
12815;DHT22;6472;52.328;13.070;2024-01-25T01:52:12;7.90;99.90
12815;DHT22;6472;52.328;13.070;2024-01-25T01:54:40;7.90;99.90
12815;DHT22;6472;52.328;13.070;2024-01-25T01:57:08;7.90;99.90
12815;DHT22;6472;52.328;13.070;2024-01-25T01:59:38;7.90;99.90
12815;DHT22;6472;52.328;13.070;2024-01-25T02:02:06;7.90;99.90
12815;DHT22;6472;52.328;13.070;2024-01-25T02:04:34;8.00;99.90
12815;DHT22;6472;52.328;13.070;2024-01-25T02:07:02;7.90;99.90
12815;DHT22;6472;52.328;13.070;2024-01-25T02:09:30;7.90;99.90
12815;DHT22;6472;52.328;13.070;2024-01-25T02:12:00;7.90;99.90
12815;DHT22;6472;52.328;13.070;2024-01-25T02:14:28;8.10;99.90
12815;DHT22;6472;52.328;13.070;2024-01-25T02:16:58;8.10;99.90
12815;DHT22;6472;52.328;13.070;2024-01-25T02:19:26;7.80;99.90
12815;DHT22;6472;52.328;13.070;2024-01-25T02:21:56;7.80;99.90
12815;DHT22;6472;52.328;13.070;2024-01-25T02:24:26;7.70;99.90
12815;DHT22;6472;52.328;13.070;2024-01-25T02:26:54;7.80;99.90
12815;DHT22;6472;52.328;13.070;2024-01-25T02:29:23;7.80;99.90
12815;DHT22;6472;52.328;13.070;2024-01-25T02:31:51;7.80;99.90
12815;DHT22;6472;52.328;13.070;2024-01-25T02:34:19;7.80;99.90
12815;DHT22;6472;52.328;13.070;2024-01-25T02:36:47;7.80;99.90
12815;DHT22;6472;52.328;13.070;2024-01-25T02:39:15;7.80;99.90
12815;DHT22;6472;52.328;13.070;2024-01-25T02:41:45;7.80;99.90
12815;DHT22;6472;52.328;13.070;2024-01-25T02:44:13;7.80;99.90
12815;DHT22;6472;52.328;13.070;2024-01-25T02:46:41;7.80;99.90
12815;DHT22;6472;52.328;13.070;2024-01-25T02:49:11;7.80;99.90
12815;DHT22;6472;52.328;13.070;2024-01-25T02:51:39;7.80;99.90
12815;DHT22;6472;52.328;13.070;2024-01-25T02:54:07;7.80;99.90
12815;DHT22;6472;52.328;13.070;2024-01-25T02:56:35;7.80;99.90
12815;DHT22;6472;52.328;13.070;2024-01-25T02:59:05;7.90;99.90
12815;DHT22;6472;52.328;13.070;2024-01-25T03:01:39;7.70;99.90
12815;DHT22;6472;52.328;13.070;2024-01-25T03:04:08;7.70;99.90
12815;DHT22;6472;52.328;13.070;2024-01-25T03:06:36;7.90;99.90
12815;DHT22;6472;52.328;13.070;2024-01-25T03:09:04;7.70;99.90
12815;DHT22;6472;52.328;13.070;2024-01-25T03:11:33;7.60;99.90
12815;DHT22;6472;52.328;13.070;2024-01-25T03:14:01;7.60;99.90
12815;DHT22;6472;52.328;13.070;2024-01-25T03:16:30;7.60;99.90
12815;DHT22;6472;52.328;13.070;2024-01-25T03:18:58;7.60;99.90
12815;DHT22;6472;52.328;13.070;2024-01-25T03:21:26;7.60;99.90
12815;DHT22;6472;52.328;13.070;2024-01-25T03:23:54;7.60;99.90
12815;DHT22;6472;52.328;13.070;2024-01-25T03:26:22;7.60;99.90
12815;DHT22;6472;52.328;13.070;2024-01-25T03:28:50;7.50;99.90
12815;DHT22;6472;52.328;13.070;2024-01-25T03:31:18;7.60;99.90
12815;DHT22;6472;52.328;13.070;2024-01-25T03:33:47;7.50;99.90
12815;DHT22;6472;52.328;13.070;2024-01-25T03:36:16;7.60;99.90
12815;DHT22;6472;52.328;13.070;2024-01-25T03:38:44;7.50;99.90
12815;DHT22;6472;52.328;13.070;2024-01-25T03:41:13;7.50;99.90
12815;DHT22;6472;52.328;13.070;2024-01-25T03:43:41;7.60;99.90
12815;DHT22;6472;52.328;13.070;2024-01-25T03:46:11;7.50;99.90
12815;DHT22;6472;52.328;13.070;2024-01-25T03:48:39;7.50;99.90
12815;DHT22;6472;52.328;13.070;2024-01-25T03:51:08;7.60;99.90
12815;DHT22;6472;52.328;13.070;2024-01-25T03:53:36;7.50;99.90
12815;DHT22;6472;52.328;13.070;2024-01-25T03:56:10;7.80;99.90
12815;DHT22;6472;52.328;13.070;2024-01-25T03:58:38;7.60;99.90
12815;DHT22;6472;52.328;13.070;2024-01-25T04:01:07;7.60;99.90
12815;DHT22;6472;52.328;13.070;2024-01-25T04:03:36;7.60;99.90
12815;DHT22;6472;52.328;13.070;2024-01-25T04:06:04;7.60;99.90
12815;DHT22;6472;52.328;13.070;2024-01-25T04:08:34;7.60;99.90
12815;DHT22;6472;52.328;13.070;2024-01-25T04:11:02;7.60;99.90
12815;DHT22;6472;52.328;13.070;2024-01-25T04:13:30;7.60;99.90
12815;DHT22;6472;52.328;13.070;2024-01-25T04:15:58;7.50;99.90
12815;DHT22;6472;52.328;13.070;2024-01-25T04:18:27;7.50;99.90
12815;DHT22;6472;52.328;13.070;2024-01-25T04:20:55;7.40;99.90
12815;DHT22;6472;52.328;13.070;2024-01-25T04:23:23;7.40;99.90
12815;DHT22;6472;52.328;13.070;2024-01-25T04:25:52;7.40;99.90
12815;DHT22;6472;52.328;13.070;2024-01-25T04:28:22;7.30;99.90
12815;DHT22;6472;52.328;13.070;2024-01-25T04:30:50;7.30;99.90
12815;DHT22;6472;52.328;13.070;2024-01-25T04:33:18;7.30;99.90
12815;DHT22;6472;52.328;13.070;2024-01-25T04:35:47;7.20;99.90
12815;DHT22;6472;52.328;13.070;2024-01-25T04:38:15;7.20;99.90
12815;DHT22;6472;52.328;13.070;2024-01-25T04:40:43;7.10;99.90
12815;DHT22;6472;52.328;13.070;2024-01-25T04:43:13;7.10;99.90
12815;DHT22;6472;52.328;13.070;2024-01-25T04:45:41;7.10;99.90
12815;DHT22;6472;52.328;13.070;2024-01-25T04:48:09;7.00;99.90
12815;DHT22;6472;52.328;13.070;2024-01-25T04:50:37;7.00;99.90
12815;DHT22;6472;52.328;13.070;2024-01-25T04:53:06;7.00;99.90
12815;DHT22;6472;52.328;13.070;2024-01-25T04:55:34;7.10;99.90
12815;DHT22;6472;52.328;13.070;2024-01-25T04:58:02;7.10;99.90
12815;DHT22;6472;52.328;13.070;2024-01-25T05:00:31;7.10;99.90
12815;DHT22;6472;52.328;13.070;2024-01-25T05:03:00;7.10;99.90
12815;DHT22;6472;52.328;13.070;2024-01-25T05:05:28;7.10;99.90
12815;DHT22;6472;52.328;13.070;2024-01-25T05:07:56;7.10;99.90
12815;DHT22;6472;52.328;13.070;2024-01-25T05:10:24;7.10;99.90
12815;DHT22;6472;52.328;13.070;2024-01-25T05:12:52;7.20;99.90
12815;DHT22;6472;52.328;13.070;2024-01-25T05:15:20;7.20;99.90
12815;DHT22;6472;52.328;13.070;2024-01-25T05:17:50;7.10;99.90
12815;DHT22;6472;52.328;13.070;2024-01-25T05:20:18;7.10;99.90
12815;DHT22;6472;52.328;13.070;2024-01-25T05:22:47;7.10;99.90
12815;DHT22;6472;52.328;13.070;2024-01-25T05:25:15;7.00;99.90
12815;DHT22;6472;52.328;13.070;2024-01-25T05:27:43;7.00;99.90
12815;DHT22;6472;52.328;13.070;2024-01-25T05:30:12;6.90;99.90
12815;DHT22;6472;52.328;13.070;2024-01-25T05:32:40;6.80;99.90
12815;DHT22;6472;52.328;13.070;2024-01-25T05:35:09;6.80;99.90
12815;DHT22;6472;52.328;13.070;2024-01-25T05:37:37;6.90;99.90
12815;DHT22;6472;52.328;13.070;2024-01-25T05:40:06;7.00;99.90
12815;DHT22;6472;52.328;13.070;2024-01-25T05:42:36;7.10;99.90
12815;DHT22;6472;52.328;13.070;2024-01-25T05:45:04;7.10;99.90
12815;DHT22;6472;52.328;13.070;2024-01-25T05:47:33;7.10;99.90
12815;DHT22;6472;52.328;13.070;2024-01-25T05:50:02;7.10;99.90
12815;DHT22;6472;52.328;13.070;2024-01-25T05:52:31;7.10;99.90
12815;DHT22;6472;52.328;13.070;2024-01-25T05:55:00;7.10;99.90
12815;DHT22;6472;52.328;13.070;2024-01-25T05:57:31;7.10;99.90
12815;DHT22;6472;52.328;13.070;2024-01-25T05:59:59;7.20;99.90
12815;DHT22;6472;52.328;13.070;2024-01-25T06:02:27;7.20;99.90
12815;DHT22;6472;52.328;13.070;2024-01-25T06:04:55;7.20;99.90
12815;DHT22;6472;52.328;13.070;2024-01-25T06:07:25;7.20;99.90
12815;DHT22;6472;52.328;13.070;2024-01-25T06:09:54;7.20;99.90
12815;DHT22;6472;52.328;13.070;2024-01-25T06:12:23;7.20;99.90
12815;DHT22;6472;52.328;13.070;2024-01-25T06:14:51;7.20;99.90
12815;DHT22;6472;52.328;13.070;2024-01-25T06:17:19;7.20;99.90
12815;DHT22;6472;52.328;13.070;2024-01-25T06:19:47;7.10;99.90
12815;DHT22;6472;52.328;13.070;2024-01-25T06:22:15;7.10;99.90
12815;DHT22;6472;52.328;13.070;2024-01-25T06:24:44;7.10;99.90
12815;DHT22;6472;52.328;13.070;2024-01-25T06:27:14;7.10;99.90
12815;DHT22;6472;52.328;13.070;2024-01-25T06:29:42;7.20;99.90
12815;DHT22;6472;52.328;13.070;2024-01-25T06:32:11;7.10;99.90
12815;DHT22;6472;52.328;13.070;2024-01-25T06:34:48;7.20;99.90
12815;DHT22;6472;52.328;13.070;2024-01-25T06:37:16;7.10;99.90
12815;DHT22;6472;52.328;13.070;2024-01-25T06:39:45;7.10;99.90
12815;DHT22;6472;52.328;13.070;2024-01-25T06:42:15;7.10;99.90
12815;DHT22;6472;52.328;13.070;2024-01-25T06:44:44;7.10;99.90
12815;DHT22;6472;52.328;13.070;2024-01-25T06:47:12;7.10;99.90
12815;DHT22;6472;52.328;13.070;2024-01-25T06:49:40;7.00;99.90
12815;DHT22;6472;52.328;13.070;2024-01-25T06:52:08;7.00;99.90
12815;DHT22;6472;52.328;13.070;2024-01-25T06:54:36;7.10;99.90
12815;DHT22;6472;52.328;13.070;2024-01-25T06:57:05;7.10;99.90
12815;DHT22;6472;52.328;13.070;2024-01-25T06:59:34;7.10;99.90
12815;DHT22;6472;52.328;13.070;2024-01-25T07:02:02;7.20;99.90
12815;DHT22;6472;52.328;13.070;2024-01-25T07:04:31;7.10;99.90
12815;DHT22;6472;52.328;13.070;2024-01-25T07:07:00;7.10;99.90
12815;DHT22;6472;52.328;13.070;2024-01-25T07:09:29;7.10;99.90
12815;DHT22;6472;52.328;13.070;2024-01-25T07:11:57;7.10;99.90
12815;DHT22;6472;52.328;13.070;2024-01-25T07:14:25;7.00;99.90
12815;DHT22;6472;52.328;13.070;2024-01-25T07:16:55;7.00;99.90
12815;DHT22;6472;52.328;13.070;2024-01-25T07:19:23;7.00;99.90
12815;DHT22;6472;52.328;13.070;2024-01-25T07:21:51;6.90;99.90
12815;DHT22;6472;52.328;13.070;2024-01-25T07:24:20;6.90;99.90
12815;DHT22;6472;52.328;13.070;2024-01-25T07:26:47;6.90;99.90
12815;DHT22;6472;52.328;13.070;2024-01-25T07:29:16;6.80;99.90
12815;DHT22;6472;52.328;13.070;2024-01-25T07:31:44;6.80;99.90
12815;DHT22;6472;52.328;13.070;2024-01-25T07:34:13;6.90;99.90
12815;DHT22;6472;52.328;13.070;2024-01-25T07:36:42;6.90;99.90
12815;DHT22;6472;52.328;13.070;2024-01-25T07:39:11;6.90;99.90
12815;DHT22;6472;52.328;13.070;2024-01-25T07:41:38;6.90;99.90
12815;DHT22;6472;52.328;13.070;2024-01-25T07:44:06;7.00;99.90
12815;DHT22;6472;52.328;13.070;2024-01-25T07:46:36;6.90;99.90
12815;DHT22;6472;52.328;13.070;2024-01-25T07:49:04;6.90;99.90
12815;DHT22;6472;52.328;13.070;2024-01-25T07:51:34;7.00;99.90
12815;DHT22;6472;52.328;13.070;2024-01-25T07:54:02;7.00;99.90
12815;DHT22;6472;52.328;13.070;2024-01-25T07:56:30;7.10;99.90
12815;DHT22;6472;52.328;13.070;2024-01-25T07:58:58;7.20;99.90
12815;DHT22;6472;52.328;13.070;2024-01-25T08:01:27;7.20;99.90
12815;DHT22;6472;52.328;13.070;2024-01-25T08:03:55;7.20;99.90
12815;DHT22;6472;52.328;13.070;2024-01-25T08:06:23;7.20;99.90
12815;DHT22;6472;52.328;13.070;2024-01-25T08:08:54;7.20;99.90
12815;DHT22;6472;52.328;13.070;2024-01-25T08:11:22;7.30;99.90
12815;DHT22;6472;52.328;13.070;2024-01-25T08:13:50;7.20;99.90
12815;DHT22;6472;52.328;13.070;2024-01-25T08:16:18;7.40;99.90
12815;DHT22;6472;52.328;13.070;2024-01-25T08:18:47;7.40;99.90
12815;DHT22;6472;52.328;13.070;2024-01-25T08:21:16;7.40;99.90
12815;DHT22;6472;52.328;13.070;2024-01-25T08:23:44;7.40;99.90
12815;DHT22;6472;52.328;13.070;2024-01-25T08:26:14;7.40;99.90
12815;DHT22;6472;52.328;13.070;2024-01-25T08:28:42;7.50;99.90
12815;DHT22;6472;52.328;13.070;2024-01-25T08:31:11;7.50;99.90
12815;DHT22;6472;52.328;13.070;2024-01-25T08:33:40;7.40;99.90
12815;DHT22;6472;52.328;13.070;2024-01-25T08:36:12;7.50;99.90
12815;DHT22;6472;52.328;13.070;2024-01-25T08:38:41;7.50;99.90
12815;DHT22;6472;52.328;13.070;2024-01-25T08:41:08;7.50;99.90
12815;DHT22;6472;52.328;13.070;2024-01-25T08:43:39;7.50;99.90
12815;DHT22;6472;52.328;13.070;2024-01-25T08:46:07;7.50;99.90
12815;DHT22;6472;52.328;13.070;2024-01-25T08:48:35;7.50;99.90
12815;DHT22;6472;52.328;13.070;2024-01-25T08:51:04;7.50;99.90
12815;DHT22;6472;52.328;13.070;2024-01-25T08:53:32;7.60;99.90
12815;DHT22;6472;52.328;13.070;2024-01-25T08:56:00;7.60;99.90
12815;DHT22;6472;52.328;13.070;2024-01-25T08:58:31;7.60;99.90
12815;DHT22;6472;52.328;13.070;2024-01-25T09:01:01;7.70;99.90
12815;DHT22;6472;52.328;13.070;2024-01-25T09:03:29;7.70;99.90
12815;DHT22;6472;52.328;13.070;2024-01-25T09:05:58;7.70;99.90
12815;DHT22;6472;52.328;13.070;2024-01-25T09:08:32;7.70;99.90
12815;DHT22;6472;52.328;13.070;2024-01-25T09:11:00;7.70;99.90
12815;DHT22;6472;52.328;13.070;2024-01-25T09:13:27;7.70;99.90
12815;DHT22;6472;52.328;13.070;2024-01-25T09:15:56;7.80;99.90
12815;DHT22;6472;52.328;13.070;2024-01-25T09:18:25;7.80;99.90
12815;DHT22;6472;52.328;13.070;2024-01-25T09:20:53;7.80;99.90
12815;DHT22;6472;52.328;13.070;2024-01-25T09:23:22;7.80;99.90
12815;DHT22;6472;52.328;13.070;2024-01-25T09:25:50;7.80;99.90
12815;DHT22;6472;52.328;13.070;2024-01-25T09:28:18;7.80;99.90
12815;DHT22;6472;52.328;13.070;2024-01-25T09:30:47;7.90;99.90
12815;DHT22;6472;52.328;13.070;2024-01-25T09:33:18;7.90;99.90
12815;DHT22;6472;52.328;13.070;2024-01-25T09:35:48;8.00;99.90
12815;DHT22;6472;52.328;13.070;2024-01-25T09:38:17;8.10;99.90
12815;DHT22;6472;52.328;13.070;2024-01-25T09:40:45;8.10;99.90
12815;DHT22;6472;52.328;13.070;2024-01-25T09:43:15;8.20;99.90
12815;DHT22;6472;52.328;13.070;2024-01-25T09:45:44;8.30;99.90
12815;DHT22;6472;52.328;13.070;2024-01-25T09:48:13;8.40;99.90
12815;DHT22;6472;52.328;13.070;2024-01-25T09:50:42;8.20;99.90
12815;DHT22;6472;52.328;13.070;2024-01-25T09:53:17;8.10;99.90
12815;DHT22;6472;52.328;13.070;2024-01-25T09:55:52;8.20;99.90
12815;DHT22;6472;52.328;13.070;2024-01-25T09:58:24;8.40;99.90
12815;DHT22;6472;52.328;13.070;2024-01-25T10:00:54;8.60;99.90
12815;DHT22;6472;52.328;13.070;2024-01-25T10:03:22;8.80;99.90
12815;DHT22;6472;52.328;13.070;2024-01-25T10:05:50;8.90;99.90
12815;DHT22;6472;52.328;13.070;2024-01-25T10:08:20;8.80;99.90
12815;DHT22;6472;52.328;13.070;2024-01-25T10:10:50;8.70;99.90
12815;DHT22;6472;52.328;13.070;2024-01-25T10:13:20;8.90;99.90
12815;DHT22;6472;52.328;13.070;2024-01-25T10:15:48;8.80;99.90
12815;DHT22;6472;52.328;13.070;2024-01-25T10:18:17;8.80;99.90
12815;DHT22;6472;52.328;13.070;2024-01-25T10:20:55;8.70;99.90
12815;DHT22;6472;52.328;13.070;2024-01-25T10:23:25;8.60;99.90
12815;DHT22;6472;52.328;13.070;2024-01-25T10:25:56;8.80;99.90
12815;DHT22;6472;52.328;13.070;2024-01-25T10:28:24;8.60;99.90
12815;DHT22;6472;52.328;13.070;2024-01-25T10:30:56;8.80;99.90
12815;DHT22;6472;52.328;13.070;2024-01-25T10:33:26;9.00;99.90
12815;DHT22;6472;52.328;13.070;2024-01-25T10:35:55;9.20;99.90
12815;DHT22;6472;52.328;13.070;2024-01-25T10:38:31;9.20;99.90
12815;DHT22;6472;52.328;13.070;2024-01-25T10:41:00;8.90;99.90
12815;DHT22;6472;52.328;13.070;2024-01-25T10:43:29;8.60;99.90
12815;DHT22;6472;52.328;13.070;2024-01-25T10:45:59;8.80;99.90
12815;DHT22;6472;52.328;13.070;2024-01-25T10:48:31;8.70;99.90
12815;DHT22;6472;52.328;13.070;2024-01-25T10:50:59;8.80;99.90
12815;DHT22;6472;52.328;13.070;2024-01-25T10:53:32;8.90;99.90
12815;DHT22;6472;52.328;13.070;2024-01-25T10:56:02;9.10;99.90
12815;DHT22;6472;52.328;13.070;2024-01-25T10:58:31;9.10;99.90
12815;DHT22;6472;52.328;13.070;2024-01-25T11:01:08;9.00;99.90
12815;DHT22;6472;52.328;13.070;2024-01-25T11:03:42;8.90;99.90
12815;DHT22;6472;52.328;13.070;2024-01-25T11:06:14;8.90;99.90
12815;DHT22;6472;52.328;13.070;2024-01-25T11:08:43;8.90;99.90
12815;DHT22;6472;52.328;13.070;2024-01-25T11:11:13;8.80;99.90
12815;DHT22;6472;52.328;13.070;2024-01-25T11:13:43;9.00;99.90
12815;DHT22;6472;52.328;13.070;2024-01-25T11:16:12;8.90;99.90
12815;DHT22;6472;52.328;13.070;2024-01-25T11:18:51;8.90;99.90
12815;DHT22;6472;52.328;13.070;2024-01-25T11:21:26;9.10;99.90
12815;DHT22;6472;52.328;13.070;2024-01-25T11:24:03;8.90;99.90
12815;DHT22;6472;52.328;13.070;2024-01-25T11:26:32;9.00;99.90
12815;DHT22;6472;52.328;13.070;2024-01-25T11:29:00;9.00;99.90
12815;DHT22;6472;52.328;13.070;2024-01-25T11:31:28;8.80;99.90
12815;DHT22;6472;52.328;13.070;2024-01-25T11:33:57;8.80;99.90
12815;DHT22;6472;52.328;13.070;2024-01-25T11:36:27;8.90;99.90
12815;DHT22;6472;52.328;13.070;2024-01-25T11:38:55;9.00;99.90
12815;DHT22;6472;52.328;13.070;2024-01-25T11:41:25;9.10;99.90
12815;DHT22;6472;52.328;13.070;2024-01-25T11:43:55;9.20;99.90
12815;DHT22;6472;52.328;13.070;2024-01-25T11:46:23;9.10;99.90
12815;DHT22;6472;52.328;13.070;2024-01-25T11:48:52;9.00;99.90
12815;DHT22;6472;52.328;13.070;2024-01-25T11:51:21;9.00;99.90
12815;DHT22;6472;52.328;13.070;2024-01-25T11:53:49;9.00;99.90
12815;DHT22;6472;52.328;13.070;2024-01-25T11:56:20;9.00;99.90
12815;DHT22;6472;52.328;13.070;2024-01-25T11:58:51;8.90;99.90
12815;DHT22;6472;52.328;13.070;2024-01-25T12:01:19;8.80;99.90
12815;DHT22;6472;52.328;13.070;2024-01-25T12:03:48;9.00;99.90
12815;DHT22;6472;52.328;13.070;2024-01-25T12:06:17;9.20;99.90
12815;DHT22;6472;52.328;13.070;2024-01-25T12:08:46;9.20;99.90
12815;DHT22;6472;52.328;13.070;2024-01-25T12:11:15;9.20;99.90
12815;DHT22;6472;52.328;13.070;2024-01-25T12:13:44;9.10;99.90
12815;DHT22;6472;52.328;13.070;2024-01-25T12:16:14;9.20;99.90
12815;DHT22;6472;52.328;13.070;2024-01-25T12:18:43;9.20;99.90
12815;DHT22;6472;52.328;13.070;2024-01-25T12:21:13;9.10;99.90
12815;DHT22;6472;52.328;13.070;2024-01-25T12:23:42;8.90;99.90
12815;DHT22;6472;52.328;13.070;2024-01-25T12:26:11;9.10;99.90
12815;DHT22;6472;52.328;13.070;2024-01-25T12:28:39;9.10;99.90
12815;DHT22;6472;52.328;13.070;2024-01-25T12:31:08;8.90;99.90
12815;DHT22;6472;52.328;13.070;2024-01-25T12:33:38;8.90;99.90
12815;DHT22;6472;52.328;13.070;2024-01-25T12:36:06;8.90;99.90
12815;DHT22;6472;52.328;13.070;2024-01-25T12:38:35;9.00;99.90
12815;DHT22;6472;52.328;13.070;2024-01-25T12:41:03;9.00;99.90
12815;DHT22;6472;52.328;13.070;2024-01-25T12:43:31;9.00;99.90
12815;DHT22;6472;52.328;13.070;2024-01-25T12:46:00;8.90;99.90
12815;DHT22;6472;52.328;13.070;2024-01-25T12:48:48;8.90;99.90
12815;DHT22;6472;52.328;13.070;2024-01-25T12:51:22;8.80;99.90
12815;DHT22;6472;52.328;13.070;2024-01-25T12:53:50;8.70;99.90
12815;DHT22;6472;52.328;13.070;2024-01-25T12:56:18;8.70;99.90
12815;DHT22;6472;52.328;13.070;2024-01-25T12:58:47;8.80;99.90
12815;DHT22;6472;52.328;13.070;2024-01-25T13:01:15;8.90;99.90
12815;DHT22;6472;52.328;13.070;2024-01-25T13:03:44;9.00;99.90
12815;DHT22;6472;52.328;13.070;2024-01-25T13:06:16;9.10;99.90
12815;DHT22;6472;52.328;13.070;2024-01-25T13:08:44;9.00;99.90
12815;DHT22;6472;52.328;13.070;2024-01-25T13:11:12;8.90;99.90
12815;DHT22;6472;52.328;13.070;2024-01-25T13:13:40;8.90;99.90
12815;DHT22;6472;52.328;13.070;2024-01-25T13:16:08;8.90;99.90
12815;DHT22;6472;52.328;13.070;2024-01-25T13:18:37;8.90;99.90
12815;DHT22;6472;52.328;13.070;2024-01-25T13:21:05;9.00;99.90
12815;DHT22;6472;52.328;13.070;2024-01-25T13:23:34;8.90;99.90
12815;DHT22;6472;52.328;13.070;2024-01-25T13:26:02;8.90;99.90
12815;DHT22;6472;52.328;13.070;2024-01-25T13:28:30;8.90;99.90
12815;DHT22;6472;52.328;13.070;2024-01-25T13:30:59;8.80;99.90
12815;DHT22;6472;52.328;13.070;2024-01-25T13:33:27;8.60;99.90
12815;DHT22;6472;52.328;13.070;2024-01-25T13:35:55;8.70;99.90
12815;DHT22;6472;52.328;13.070;2024-01-25T13:38:23;8.60;99.90
12815;DHT22;6472;52.328;13.070;2024-01-25T13:40:53;8.60;99.90
12815;DHT22;6472;52.328;13.070;2024-01-25T13:43:21;8.70;99.90
12815;DHT22;6472;52.328;13.070;2024-01-25T13:45:49;8.60;99.90
12815;DHT22;6472;52.328;13.070;2024-01-25T13:48:16;8.50;99.90
12815;DHT22;6472;52.328;13.070;2024-01-25T13:50:46;8.50;99.90
12815;DHT22;6472;52.328;13.070;2024-01-25T13:53:14;8.50;99.90
12815;DHT22;6472;52.328;13.070;2024-01-25T13:55:42;8.60;99.90
12815;DHT22;6472;52.328;13.070;2024-01-25T13:58:11;8.60;99.90
12815;DHT22;6472;52.328;13.070;2024-01-25T14:00:39;8.70;99.90
12815;DHT22;6472;52.328;13.070;2024-01-25T14:03:08;8.70;99.90
12815;DHT22;6472;52.328;13.070;2024-01-25T14:05:36;8.70;99.90
12815;DHT22;6472;52.328;13.070;2024-01-25T14:08:05;8.60;99.90
12815;DHT22;6472;52.328;13.070;2024-01-25T14:10:33;8.40;99.90
12815;DHT22;6472;52.328;13.070;2024-01-25T14:13:03;8.40;99.90
12815;DHT22;6472;52.328;13.070;2024-01-25T14:15:34;8.40;99.90
12815;DHT22;6472;52.328;13.070;2024-01-25T14:18:03;8.40;99.90
12815;DHT22;6472;52.328;13.070;2024-01-25T14:20:31;8.40;99.90
12815;DHT22;6472;52.328;13.070;2024-01-25T14:22:59;8.40;99.90
12815;DHT22;6472;52.328;13.070;2024-01-25T14:25:28;8.30;99.90
12815;DHT22;6472;52.328;13.070;2024-01-25T14:27:56;8.20;99.90
12815;DHT22;6472;52.328;13.070;2024-01-25T14:30:25;8.20;99.90
12815;DHT22;6472;52.328;13.070;2024-01-25T14:32:55;8.20;99.90
12815;DHT22;6472;52.328;13.070;2024-01-25T14:35:24;8.10;99.90
12815;DHT22;6472;52.328;13.070;2024-01-25T14:37:55;8.10;99.90
12815;DHT22;6472;52.328;13.070;2024-01-25T14:40:24;8.00;99.90
12815;DHT22;6472;52.328;13.070;2024-01-25T14:43:12;8.00;99.90
12815;DHT22;6472;52.328;13.070;2024-01-25T14:45:43;7.90;99.90
12815;DHT22;6472;52.328;13.070;2024-01-25T14:48:12;7.90;99.90
12815;DHT22;6472;52.328;13.070;2024-01-25T14:50:40;7.90;99.90
12815;DHT22;6472;52.328;13.070;2024-01-25T14:53:08;7.80;99.90
12815;DHT22;6472;52.328;13.070;2024-01-25T14:55:36;7.80;99.90
12815;DHT22;6472;52.328;13.070;2024-01-25T14:58:04;7.80;99.90
12815;DHT22;6472;52.328;13.070;2024-01-25T15:00:34;7.70;99.90
12815;DHT22;6472;52.328;13.070;2024-01-25T15:03:03;7.70;99.90
12815;DHT22;6472;52.328;13.070;2024-01-25T15:05:32;7.60;99.90
12815;DHT22;6472;52.328;13.070;2024-01-25T15:08:00;7.70;99.90
12815;DHT22;6472;52.328;13.070;2024-01-25T15:10:28;7.70;99.90
12815;DHT22;6472;52.328;13.070;2024-01-25T15:12:58;7.70;99.90
12815;DHT22;6472;52.328;13.070;2024-01-25T15:15:26;7.60;99.90
12815;DHT22;6472;52.328;13.070;2024-01-25T15:17:57;7.60;99.90
12815;DHT22;6472;52.328;13.070;2024-01-25T15:20:26;7.60;99.90
12815;DHT22;6472;52.328;13.070;2024-01-25T15:22:56;7.60;99.90
12815;DHT22;6472;52.328;13.070;2024-01-25T15:25:27;7.60;99.90
12815;DHT22;6472;52.328;13.070;2024-01-25T15:27:55;7.60;99.90
12815;DHT22;6472;52.328;13.070;2024-01-25T15:30:23;7.60;99.90
12815;DHT22;6472;52.328;13.070;2024-01-25T15:32:51;7.50;99.90
12815;DHT22;6472;52.328;13.070;2024-01-25T15:35:19;7.50;99.90
12815;DHT22;6472;52.328;13.070;2024-01-25T15:37:47;7.40;99.90
12815;DHT22;6472;52.328;13.070;2024-01-25T15:40:17;7.40;99.90
12815;DHT22;6472;52.328;13.070;2024-01-25T15:42:46;7.40;99.90
12815;DHT22;6472;52.328;13.070;2024-01-25T15:45:19;7.40;99.90
12815;DHT22;6472;52.328;13.070;2024-01-25T15:47:47;7.40;99.90
12815;DHT22;6472;52.328;13.070;2024-01-25T15:50:16;7.50;99.90
12815;DHT22;6472;52.328;13.070;2024-01-25T15:52:46;7.40;99.90
12815;DHT22;6472;52.328;13.070;2024-01-25T15:55:14;7.30;99.90